sensor_id;sensor_type;location;lat;lon;timestamp;P1;durP1;ratioP1;P2;durP2;ratioP2
40959;SDS011;27842;52.272;8.052;2024-02-26T00:00:13;10.47;;;4.40;;
40959;SDS011;27842;52.272;8.052;2024-02-26T00:02:39;13.33;;;4.73;;
40959;SDS011;27842;52.272;8.052;2024-02-26T00:05:05;11.10;;;4.23;;
40959;SDS011;27842;52.272;8.052;2024-02-26T00:07:31;12.17;;;4.70;;
40959;SDS011;27842;52.272;8.052;2024-02-26T00:09:57;12.47;;;4.80;;
40959;SDS011;27842;52.272;8.052;2024-02-26T00:12:22;11.20;;;4.40;;
40959;SDS011;27842;52.272;8.052;2024-02-26T00:14:48;13.20;;;4.60;;
40959;SDS011;27842;52.272;8.052;2024-02-26T00:17:14;11.03;;;4.47;;
40959;SDS011;27842;52.272;8.052;2024-02-26T00:19:40;9.50;;;4.20;;
40959;SDS011;27842;52.272;8.052;2024-02-26T00:22:06;10.60;;;4.40;;
40959;SDS011;27842;52.272;8.052;2024-02-26T00:24:31;12.93;;;5.07;;
40959;SDS011;27842;52.272;8.052;2024-02-26T00:26:57;11.33;;;4.23;;
40959;SDS011;27842;52.272;8.052;2024-02-26T00:29:24;12.10;;;4.63;;
40959;SDS011;27842;52.272;8.052;2024-02-26T00:31:50;10.00;;;4.20;;
40959;SDS011;27842;52.272;8.052;2024-02-26T00:34:16;13.03;;;4.57;;
40959;SDS011;27842;52.272;8.052;2024-02-26T00:36:41;10.53;;;4.30;;
40959;SDS011;27842;52.272;8.052;2024-02-26T00:39:07;9.37;;;4.10;;
40959;SDS011;27842;52.272;8.052;2024-02-26T00:41:33;12.83;;;4.30;;
40959;SDS011;27842;52.272;8.052;2024-02-26T00:44:02;9.17;;;4.23;;
40959;SDS011;27842;52.272;8.052;2024-02-26T00:46:28;11.17;;;4.40;;
40959;SDS011;27842;52.272;8.052;2024-02-26T00:48:53;10.97;;;4.03;;
40959;SDS011;27842;52.272;8.052;2024-02-26T00:51:19;10.83;;;4.40;;
40959;SDS011;27842;52.272;8.052;2024-02-26T00:53:45;11.43;;;4.00;;
40959;SDS011;27842;52.272;8.052;2024-02-26T00:56:10;10.47;;;4.30;;
40959;SDS011;27842;52.272;8.052;2024-02-26T00:58:36;12.00;;;4.00;;
40959;SDS011;27842;52.272;8.052;2024-02-26T01:01:01;12.37;;;4.47;;
40959;SDS011;27842;52.272;8.052;2024-02-26T01:03:28;11.13;;;4.10;;
40959;SDS011;27842;52.272;8.052;2024-02-26T01:05:53;10.87;;;5.20;;
40959;SDS011;27842;52.272;8.052;2024-02-26T01:08:19;11.37;;;4.37;;
40959;SDS011;27842;52.272;8.052;2024-02-26T01:10:45;10.63;;;4.40;;
40959;SDS011;27842;52.272;8.052;2024-02-26T01:13:11;11.37;;;4.47;;
40959;SDS011;27842;52.272;8.052;2024-02-26T01:15:36;9.87;;;4.00;;
40959;SDS011;27842;52.272;8.052;2024-02-26T01:18:02;11.40;;;4.50;;
40959;SDS011;27842;52.272;8.052;2024-02-26T01:20:27;9.57;;;4.30;;
40959;SDS011;27842;52.272;8.052;2024-02-26T01:22:53;9.03;;;3.90;;
40959;SDS011;27842;52.272;8.052;2024-02-26T01:25:18;9.27;;;3.77;;
40959;SDS011;27842;52.272;8.052;2024-02-26T01:27:44;9.57;;;4.00;;
40959;SDS011;27842;52.272;8.052;2024-02-26T01:30:10;8.13;;;3.60;;
40959;SDS011;27842;52.272;8.052;2024-02-26T01:32:36;9.87;;;3.70;;
40959;SDS011;27842;52.272;8.052;2024-02-26T01:35:02;8.80;;;3.57;;
40959;SDS011;27842;52.272;8.052;2024-02-26T01:37:35;10.83;;;3.63;;
40959;SDS011;27842;52.272;8.052;2024-02-26T01:40:00;7.60;;;3.30;;
40959;SDS011;27842;52.272;8.052;2024-02-26T01:42:28;9.63;;;3.50;;
40959;SDS011;27842;52.272;8.052;2024-02-26T01:44:55;8.03;;;3.43;;
40959;SDS011;27842;52.272;8.052;2024-02-26T01:47:21;10.00;;;3.90;;
40959;SDS011;27842;52.272;8.052;2024-02-26T01:49:47;11.20;;;4.30;;
40959;SDS011;27842;52.272;8.052;2024-02-26T01:52:13;10.30;;;3.93;;
40959;SDS011;27842;52.272;8.052;2024-02-26T01:54:39;9.47;;;3.90;;
40959;SDS011;27842;52.272;8.052;2024-02-26T01:57:06;10.30;;;4.27;;
40959;SDS011;27842;52.272;8.052;2024-02-26T01:59:33;8.53;;;3.67;;
40959;SDS011;27842;52.272;8.052;2024-02-26T02:02:00;11.93;;;4.40;;
40959;SDS011;27842;52.272;8.052;2024-02-26T02:04:28;10.77;;;4.40;;
40959;SDS011;27842;52.272;8.052;2024-02-26T02:06:54;9.77;;;4.30;;
40959;SDS011;27842;52.272;8.052;2024-02-26T02:09:20;10.23;;;4.10;;
40959;SDS011;27842;52.272;8.052;2024-02-26T02:11:47;9.20;;;3.83;;
40959;SDS011;27842;52.272;8.052;2024-02-26T02:14:14;11.87;;;4.33;;
40959;SDS011;27842;52.272;8.052;2024-02-26T02:16:39;9.73;;;3.90;;
40959;SDS011;27842;52.272;8.052;2024-02-26T02:19:05;10.10;;;3.93;;
40959;SDS011;27842;52.272;8.052;2024-02-26T02:21:30;10.43;;;3.63;;
40959;SDS011;27842;52.272;8.052;2024-02-26T02:23:56;11.27;;;4.07;;
40959;SDS011;27842;52.272;8.052;2024-02-26T02:26:22;10.63;;;3.97;;
40959;SDS011;27842;52.272;8.052;2024-02-26T02:28:47;10.53;;;4.00;;
40959;SDS011;27842;52.272;8.052;2024-02-26T02:31:14;10.43;;;3.73;;
40959;SDS011;27842;52.272;8.052;2024-02-26T02:33:40;8.93;;;3.63;;
40959;SDS011;27842;52.272;8.052;2024-02-26T02:36:06;8.93;;;3.97;;
40959;SDS011;27842;52.272;8.052;2024-02-26T02:38:35;7.78;;;3.47;;
40959;SDS011;27842;52.272;8.052;2024-02-26T02:41:01;8.57;;;3.40;;
40959;SDS011;27842;52.272;8.052;2024-02-26T02:43:27;8.17;;;3.47;;
40959;SDS011;27842;52.272;8.052;2024-02-26T02:45:52;7.30;;;3.47;;
40959;SDS011;27842;52.272;8.052;2024-02-26T02:48:18;8.33;;;3.30;;
40959;SDS011;27842;52.272;8.052;2024-02-26T02:50:44;8.23;;;3.53;;
40959;SDS011;27842;52.272;8.052;2024-02-26T02:53:10;11.27;;;4.90;;
40959;SDS011;27842;52.272;8.052;2024-02-26T02:55:35;10.00;;;3.70;;
40959;SDS011;27842;52.272;8.052;2024-02-26T02:58:01;7.80;;;3.40;;
40959;SDS011;27842;52.272;8.052;2024-02-26T03:00:26;10.83;;;3.40;;
40959;SDS011;27842;52.272;8.052;2024-02-26T03:02:52;7.30;;;3.30;;
40959;SDS011;27842;52.272;8.052;2024-02-26T03:05:20;10.03;;;3.40;;
40959;SDS011;27842;52.272;8.052;2024-02-26T03:07:46;6.90;;;3.00;;
40959;SDS011;27842;52.272;8.052;2024-02-26T03:10:11;6.13;;;2.90;;
40959;SDS011;27842;52.272;8.052;2024-02-26T03:12:37;6.73;;;2.70;;
40959;SDS011;27842;52.272;8.052;2024-02-26T03:15:02;6.30;;;2.43;;
40959;SDS011;27842;52.272;8.052;2024-02-26T03:17:29;6.63;;;2.70;;
40959;SDS011;27842;52.272;8.052;2024-02-26T03:19:55;5.70;;;2.93;;
40959;SDS011;27842;52.272;8.052;2024-02-26T03:22:20;6.83;;;2.70;;
40959;SDS011;27842;52.272;8.052;2024-02-26T03:24:46;5.57;;;2.90;;
40959;SDS011;27842;52.272;8.052;2024-02-26T03:27:12;8.60;;;2.90;;
40959;SDS011;27842;52.272;8.052;2024-02-26T03:29:37;5.33;;;2.70;;
40959;SDS011;27842;52.272;8.052;2024-02-26T03:32:03;5.60;;;2.57;;
40959;SDS011;27842;52.272;8.052;2024-02-26T03:34:29;6.20;;;2.73;;
40959;SDS011;27842;52.272;8.052;2024-02-26T03:36:56;6.93;;;2.87;;
40959;SDS011;27842;52.272;8.052;2024-02-26T03:39:22;6.63;;;2.73;;
40959;SDS011;27842;52.272;8.052;2024-02-26T03:41:47;4.80;;;2.40;;
40959;SDS011;27842;52.272;8.052;2024-02-26T03:44:13;8.87;;;3.00;;
40959;SDS011;27842;52.272;8.052;2024-02-26T03:46:39;6.63;;;2.47;;
40959;SDS011;27842;52.272;8.052;2024-02-26T03:49:07;4.43;;;2.27;;
40959;SDS011;27842;52.272;8.052;2024-02-26T03:51:33;4.80;;;2.23;;
40959;SDS011;27842;52.272;8.052;2024-02-26T03:53:59;4.33;;;2.20;;
40959;SDS011;27842;52.272;8.052;2024-02-26T03:56:25;5.77;;;2.50;;
40959;SDS011;27842;52.272;8.052;2024-02-26T03:58:51;7.17;;;2.47;;
40959;SDS011;27842;52.272;8.052;2024-02-26T04:01:17;6.83;;;2.60;;
40959;SDS011;27842;52.272;8.052;2024-02-26T04:03:42;4.27;;;2.27;;
40959;SDS011;27842;52.272;8.052;2024-02-26T04:06:08;5.87;;;2.33;;
40959;SDS011;27842;52.272;8.052;2024-02-26T04:08:45;8.77;;;2.80;;
40959;SDS011;27842;52.272;8.052;2024-02-26T04:11:11;6.93;;;2.80;;
40959;SDS011;27842;52.272;8.052;2024-02-26T04:13:37;5.40;;;2.30;;
40959;SDS011;27842;52.272;8.052;2024-02-26T04:16:03;5.30;;;2.33;;
40959;SDS011;27842;52.272;8.052;2024-02-26T04:18:30;7.17;;;2.60;;
40959;SDS011;27842;52.272;8.052;2024-02-26T04:20:56;6.77;;;2.33;;
40959;SDS011;27842;52.272;8.052;2024-02-26T04:23:22;6.33;;;2.57;;
40959;SDS011;27842;52.272;8.052;2024-02-26T04:25:47;6.00;;;2.83;;
40959;SDS011;27842;52.272;8.052;2024-02-26T04:28:13;6.17;;;2.80;;
40959;SDS011;27842;52.272;8.052;2024-02-26T04:30:39;5.47;;;2.43;;
40959;SDS011;27842;52.272;8.052;2024-02-26T04:33:05;7.60;;;2.80;;
40959;SDS011;27842;52.272;8.052;2024-02-26T04:35:31;6.17;;;2.67;;
40959;SDS011;27842;52.272;8.052;2024-02-26T04:37:56;5.77;;;2.60;;
40959;SDS011;27842;52.272;8.052;2024-02-26T04:40:22;5.57;;;2.97;;
40959;SDS011;27842;52.272;8.052;2024-02-26T04:42:48;7.10;;;2.87;;
40959;SDS011;27842;52.272;8.052;2024-02-26T04:45:14;5.93;;;2.77;;
40959;SDS011;27842;52.272;8.052;2024-02-26T04:47:40;6.53;;;3.00;;
40959;SDS011;27842;52.272;8.052;2024-02-26T04:50:06;5.37;;;2.80;;
40959;SDS011;27842;52.272;8.052;2024-02-26T04:52:31;7.37;;;2.73;;
40959;SDS011;27842;52.272;8.052;2024-02-26T04:54:57;5.93;;;3.03;;
40959;SDS011;27842;52.272;8.052;2024-02-26T04:57:24;20.30;;;4.63;;
40959;SDS011;27842;52.272;8.052;2024-02-26T04:59:51;9.17;;;3.13;;
40959;SDS011;27842;52.272;8.052;2024-02-26T05:02:17;7.00;;;2.83;;
40959;SDS011;27842;52.272;8.052;2024-02-26T05:04:42;6.40;;;2.93;;
40959;SDS011;27842;52.272;8.052;2024-02-26T05:07:08;6.73;;;3.00;;
40959;SDS011;27842;52.272;8.052;2024-02-26T05:09:34;8.00;;;3.00;;
40959;SDS011;27842;52.272;8.052;2024-02-26T05:12:00;6.63;;;2.90;;
40959;SDS011;27842;52.272;8.052;2024-02-26T05:14:25;7.20;;;3.03;;
40959;SDS011;27842;52.272;8.052;2024-02-26T05:16:51;8.40;;;3.57;;
40959;SDS011;27842;52.272;8.052;2024-02-26T05:19:16;7.50;;;3.40;;
40959;SDS011;27842;52.272;8.052;2024-02-26T05:21:42;9.67;;;3.33;;
40959;SDS011;27842;52.272;8.052;2024-02-26T05:24:09;7.47;;;3.70;;
40959;SDS011;27842;52.272;8.052;2024-02-26T05:26:35;8.20;;;3.83;;
40959;SDS011;27842;52.272;8.052;2024-02-26T05:29:00;10.07;;;3.90;;
40959;SDS011;27842;52.272;8.052;2024-02-26T05:31:26;8.17;;;3.63;;
40959;SDS011;27842;52.272;8.052;2024-02-26T05:33:53;9.00;;;3.80;;
40959;SDS011;27842;52.272;8.052;2024-02-26T05:36:20;9.27;;;3.83;;
40959;SDS011;27842;52.272;8.052;2024-02-26T05:38:47;8.47;;;3.63;;
40959;SDS011;27842;52.272;8.052;2024-02-26T05:41:14;12.17;;;3.90;;
40959;SDS011;27842;52.272;8.052;2024-02-26T05:43:40;10.53;;;3.70;;
40959;SDS011;27842;52.272;8.052;2024-02-26T05:46:06;9.50;;;3.83;;
40959;SDS011;27842;52.272;8.052;2024-02-26T05:48:32;9.47;;;4.10;;
40959;SDS011;27842;52.272;8.052;2024-02-26T05:50:57;8.50;;;3.90;;
40959;SDS011;27842;52.272;8.052;2024-02-26T05:53:23;8.70;;;4.00;;
40959;SDS011;27842;52.272;8.052;2024-02-26T05:55:48;9.47;;;3.97;;
40959;SDS011;27842;52.272;8.052;2024-02-26T05:58:14;10.07;;;4.37;;
40959;SDS011;27842;52.272;8.052;2024-02-26T06:00:39;9.27;;;4.00;;
40959;SDS011;27842;52.272;8.052;2024-02-26T06:03:05;12.07;;;4.60;;
40959;SDS011;27842;52.272;8.052;2024-02-26T06:05:31;10.43;;;4.03;;
40959;SDS011;27842;52.272;8.052;2024-02-26T06:07:56;12.10;;;4.53;;
40959;SDS011;27842;52.272;8.052;2024-02-26T06:10:22;11.07;;;4.33;;
40959;SDS011;27842;52.272;8.052;2024-02-26T06:12:47;9.60;;;4.03;;
40959;SDS011;27842;52.272;8.052;2024-02-26T06:15:14;9.93;;;4.03;;
40959;SDS011;27842;52.272;8.052;2024-02-26T06:17:39;13.10;;;5.10;;
40959;SDS011;27842;52.272;8.052;2024-02-26T06:20:05;10.73;;;4.33;;
40959;SDS011;27842;52.272;8.052;2024-02-26T06:22:36;11.73;;;4.60;;
40959;SDS011;27842;52.272;8.052;2024-02-26T06:25:02;10.90;;;4.47;;
40959;SDS011;27842;52.272;8.052;2024-02-26T06:27:28;11.70;;;4.60;;
40959;SDS011;27842;52.272;8.052;2024-02-26T06:29:53;9.73;;;3.93;;
40959;SDS011;27842;52.272;8.052;2024-02-26T06:32:19;15.73;;;4.80;;
40959;SDS011;27842;52.272;8.052;2024-02-26T06:34:44;10.13;;;4.07;;
40959;SDS011;27842;52.272;8.052;2024-02-26T06:37:10;13.37;;;4.50;;
40959;SDS011;27842;52.272;8.052;2024-02-26T06:39:35;13.10;;;4.70;;
40959;SDS011;27842;52.272;8.052;2024-02-26T06:42:01;13.20;;;4.67;;
40959;SDS011;27842;52.272;8.052;2024-02-26T06:44:27;11.50;;;4.70;;
40959;SDS011;27842;52.272;8.052;2024-02-26T06:46:59;14.43;;;5.33;;
40959;SDS011;27842;52.272;8.052;2024-02-26T06:49:25;11.90;;;4.20;;
40959;SDS011;27842;52.272;8.052;2024-02-26T06:51:51;13.70;;;4.90;;
40959;SDS011;27842;52.272;8.052;2024-02-26T06:54:17;13.43;;;4.70;;
40959;SDS011;27842;52.272;8.052;2024-02-26T06:56:43;14.17;;;4.80;;
40959;SDS011;27842;52.272;8.052;2024-02-26T06:59:08;11.90;;;4.30;;
40959;SDS011;27842;52.272;8.052;2024-02-26T07:01:34;10.70;;;4.40;;
40959;SDS011;27842;52.272;8.052;2024-02-26T07:03:59;19.50;;;5.60;;
40959;SDS011;27842;52.272;8.052;2024-02-26T07:06:25;13.17;;;4.60;;
40959;SDS011;27842;52.272;8.052;2024-02-26T07:08:54;12.02;;;4.43;;
40959;SDS011;27842;52.272;8.052;2024-02-26T07:11:20;12.40;;;4.37;;
40959;SDS011;27842;52.272;8.052;2024-02-26T07:13:46;12.83;;;4.47;;
40959;SDS011;27842;52.272;8.052;2024-02-26T07:16:12;10.93;;;4.47;;
40959;SDS011;27842;52.272;8.052;2024-02-26T07:18:38;12.43;;;4.27;;
40959;SDS011;27842;52.272;8.052;2024-02-26T07:21:04;12.20;;;4.47;;
40959;SDS011;27842;52.272;8.052;2024-02-26T07:23:30;9.97;;;3.63;;
40959;SDS011;27842;52.272;8.052;2024-02-26T07:25:57;11.73;;;4.20;;
40959;SDS011;27842;52.272;8.052;2024-02-26T07:28:23;11.07;;;4.00;;
40959;SDS011;27842;52.272;8.052;2024-02-26T07:30:49;11.63;;;4.40;;
40959;SDS011;27842;52.272;8.052;2024-02-26T07:33:15;10.47;;;3.70;;
40959;SDS011;27842;52.272;8.052;2024-02-26T07:35:40;9.27;;;3.70;;
40959;SDS011;27842;52.272;8.052;2024-02-26T07:38:06;9.30;;;3.60;;
40959;SDS011;27842;52.272;8.052;2024-02-26T07:40:32;9.13;;;3.57;;
40959;SDS011;27842;52.272;8.052;2024-02-26T07:42:57;10.20;;;4.37;;
40959;SDS011;27842;52.272;8.052;2024-02-26T07:45:23;7.50;;;3.40;;
40959;SDS011;27842;52.272;8.052;2024-02-26T07:47:48;8.23;;;3.20;;
40959;SDS011;27842;52.272;8.052;2024-02-26T07:50:16;11.27;;;3.53;;
40959;SDS011;27842;52.272;8.052;2024-02-26T07:52:42;11.53;;;4.23;;
40959;SDS011;27842;52.272;8.052;2024-02-26T07:55:07;8.53;;;3.43;;
40959;SDS011;27842;52.272;8.052;2024-02-26T07:57:33;11.10;;;3.77;;
40959;SDS011;27842;52.272;8.052;2024-02-26T07:59:59;9.80;;;3.50;;
40959;SDS011;27842;52.272;8.052;2024-02-26T08:02:25;9.90;;;3.87;;
40959;SDS011;27842;52.272;8.052;2024-02-26T08:04:50;7.13;;;3.23;;
40959;SDS011;27842;52.272;8.052;2024-02-26T08:07:16;8.30;;;3.50;;
40959;SDS011;27842;52.272;8.052;2024-02-26T08:09:42;11.17;;;4.27;;
40959;SDS011;27842;52.272;8.052;2024-02-26T08:12:07;10.40;;;3.53;;
40959;SDS011;27842;52.272;8.052;2024-02-26T08:14:33;10.50;;;3.97;;
40959;SDS011;27842;52.272;8.052;2024-02-26T08:16:59;9.07;;;3.63;;
40959;SDS011;27842;52.272;8.052;2024-02-26T08:19:26;8.33;;;3.43;;
40959;SDS011;27842;52.272;8.052;2024-02-26T08:21:52;12.53;;;4.07;;
40959;SDS011;27842;52.272;8.052;2024-02-26T08:24:17;11.03;;;3.90;;
40959;SDS011;27842;52.272;8.052;2024-02-26T08:26:43;8.60;;;3.53;;
40959;SDS011;27842;52.272;8.052;2024-02-26T08:29:09;9.87;;;3.97;;
40959;SDS011;27842;52.272;8.052;2024-02-26T08:31:34;8.83;;;3.87;;
40959;SDS011;27842;52.272;8.052;2024-02-26T08:34:02;8.90;;;3.63;;
40959;SDS011;27842;52.272;8.052;2024-02-26T08:36:28;9.87;;;3.40;;
40959;SDS011;27842;52.272;8.052;2024-02-26T08:38:55;10.87;;;4.07;;
40959;SDS011;27842;52.272;8.052;2024-02-26T08:41:20;8.47;;;3.77;;
40959;SDS011;27842;52.272;8.052;2024-02-26T08:43:46;10.87;;;4.30;;
40959;SDS011;27842;52.272;8.052;2024-02-26T08:46:15;10.13;;;3.80;;
40959;SDS011;27842;52.272;8.052;2024-02-26T08:48:40;8.60;;;3.83;;
40959;SDS011;27842;52.272;8.052;2024-02-26T08:51:09;10.50;;;3.90;;
40959;SDS011;27842;52.272;8.052;2024-02-26T08:53:35;11.13;;;4.28;;
40959;SDS011;27842;52.272;8.052;2024-02-26T08:56:01;9.63;;;4.37;;
40959;SDS011;27842;52.272;8.052;2024-02-26T08:58:27;10.47;;;4.30;;
40959;SDS011;27842;52.272;8.052;2024-02-26T09:00:53;9.77;;;3.83;;
40959;SDS011;27842;52.272;8.052;2024-02-26T09:03:19;9.60;;;4.00;;
40959;SDS011;27842;52.272;8.052;2024-02-26T09:05:45;10.73;;;4.20;;
40959;SDS011;27842;52.272;8.052;2024-02-26T09:08:11;11.27;;;4.33;;
40959;SDS011;27842;52.272;8.052;2024-02-26T09:10:37;12.13;;;4.50;;
40959;SDS011;27842;52.272;8.052;2024-02-26T09:13:03;9.70;;;4.40;;
40959;SDS011;27842;52.272;8.052;2024-02-26T09:15:29;10.53;;;4.30;;
40959;SDS011;27842;52.272;8.052;2024-02-26T09:17:55;11.67;;;4.47;;
40959;SDS011;27842;52.272;8.052;2024-02-26T09:20:21;12.00;;;4.50;;
40959;SDS011;27842;52.272;8.052;2024-02-26T09:22:48;10.33;;;4.47;;
40959;SDS011;27842;52.272;8.052;2024-02-26T09:25:14;12.33;;;4.53;;
40959;SDS011;27842;52.272;8.052;2024-02-26T09:27:43;12.67;;;4.57;;
40959;SDS011;27842;52.272;8.052;2024-02-26T09:30:09;11.60;;;4.67;;
40959;SDS011;27842;52.272;8.052;2024-02-26T09:32:37;10.93;;;4.37;;
40959;SDS011;27842;52.272;8.052;2024-02-26T09:35:06;11.40;;;4.23;;
40959;SDS011;27842;52.272;8.052;2024-02-26T09:37:35;12.37;;;4.70;;
40959;SDS011;27842;52.272;8.052;2024-02-26T09:40:02;9.23;;;4.03;;
40959;SDS011;27842;52.272;8.052;2024-02-26T09:42:29;10.70;;;4.13;;
40959;SDS011;27842;52.272;8.052;2024-02-26T09:45:07;13.07;;;4.47;;
40959;SDS011;27842;52.272;8.052;2024-02-26T09:47:37;12.73;;;4.60;;
40959;SDS011;27842;52.272;8.052;2024-02-26T09:50:04;12.07;;;3.70;;
40959;SDS011;27842;52.272;8.052;2024-02-26T09:52:34;8.67;;;3.53;;
40959;SDS011;27842;52.272;8.052;2024-02-26T09:55:02;10.60;;;3.93;;
40959;SDS011;27842;52.272;8.052;2024-02-26T09:57:29;10.23;;;3.63;;
40959;SDS011;27842;52.272;8.052;2024-02-26T09:59:56;11.70;;;4.57;;
40959;SDS011;27842;52.272;8.052;2024-02-26T10:02:30;8.20;;;3.20;;
40959;SDS011;27842;52.272;8.052;2024-02-26T10:04:57;7.67;;;3.30;;
40959;SDS011;27842;52.272;8.052;2024-02-26T10:09:54;9.10;;;3.17;;
40959;SDS011;27842;52.272;8.052;2024-02-26T10:12:20;7.60;;;3.20;;
40959;SDS011;27842;52.272;8.052;2024-02-26T10:14:47;7.97;;;2.90;;
40959;SDS011;27842;52.272;8.052;2024-02-26T10:17:13;10.30;;;3.03;;
40959;SDS011;27842;52.272;8.052;2024-02-26T10:19:39;9.13;;;3.30;;
40959;SDS011;27842;52.272;8.052;2024-02-26T10:22:05;7.00;;;3.17;;
40959;SDS011;27842;52.272;8.052;2024-02-26T10:24:31;9.30;;;3.00;;
40959;SDS011;27842;52.272;8.052;2024-02-26T10:26:57;8.50;;;3.00;;
40959;SDS011;27842;52.272;8.052;2024-02-26T10:29:26;7.97;;;3.47;;
40959;SDS011;27842;52.272;8.052;2024-02-26T10:34:18;7.37;;;2.97;;
40959;SDS011;27842;52.272;8.052;2024-02-26T10:36:44;5.20;;;2.63;;
40959;SDS011;27842;52.272;8.052;2024-02-26T10:39:13;8.60;;;3.10;;
40959;SDS011;27842;52.272;8.052;2024-02-26T10:41:48;8.75;;;3.15;;
40959;SDS011;27842;52.272;8.052;2024-02-26T10:44:14;9.13;;;2.80;;
40959;SDS011;27842;52.272;8.052;2024-02-26T10:46:40;7.77;;;2.90;;
40959;SDS011;27842;52.272;8.052;2024-02-26T10:49:08;6.57;;;2.80;;
40959;SDS011;27842;52.272;8.052;2024-02-26T10:51:39;8.07;;;2.90;;
40959;SDS011;27842;52.272;8.052;2024-02-26T10:54:08;5.27;;;2.80;;
40959;SDS011;27842;52.272;8.052;2024-02-26T10:56:37;6.50;;;2.90;;
40959;SDS011;27842;52.272;8.052;2024-02-26T10:59:09;8.23;;;2.93;;
40959;SDS011;27842;52.272;8.052;2024-02-26T11:01:35;8.57;;;3.47;;
40959;SDS011;27842;52.272;8.052;2024-02-26T11:04:03;8.67;;;3.27;;
40959;SDS011;27842;52.272;8.052;2024-02-26T11:06:29;8.57;;;3.13;;
40959;SDS011;27842;52.272;8.052;2024-02-26T11:08:59;8.13;;;3.00;;
40959;SDS011;27842;52.272;8.052;2024-02-26T11:11:26;7.13;;;2.83;;
40959;SDS011;27842;52.272;8.052;2024-02-26T11:13:53;9.70;;;3.23;;
40959;SDS011;27842;52.272;8.052;2024-02-26T11:16:22;7.53;;;3.13;;
40959;SDS011;27842;52.272;8.052;2024-02-26T11:18:48;8.73;;;3.50;;
40959;SDS011;27842;52.272;8.052;2024-02-26T11:21:18;7.33;;;3.40;;
40959;SDS011;27842;52.272;8.052;2024-02-26T11:23:47;7.83;;;3.43;;
40959;SDS011;27842;52.272;8.052;2024-02-26T11:26:14;7.25;;;2.88;;
40959;SDS011;27842;52.272;8.052;2024-02-26T11:28:41;7.97;;;3.43;;
40959;SDS011;27842;52.272;8.052;2024-02-26T11:31:09;7.27;;;3.20;;
40959;SDS011;27842;52.272;8.052;2024-02-26T11:33:35;10.50;;;3.73;;
40959;SDS011;27842;52.272;8.052;2024-02-26T11:36:01;10.23;;;3.80;;
40959;SDS011;27842;52.272;8.052;2024-02-26T11:38:32;11.80;;;4.40;;
40959;SDS011;27842;52.272;8.052;2024-02-26T11:40:58;7.27;;;3.50;;
40959;SDS011;27842;52.272;8.052;2024-02-26T11:46:25;11.23;;;3.30;;
40959;SDS011;27842;52.272;8.052;2024-02-26T11:48:53;9.03;;;3.40;;
40959;SDS011;27842;52.272;8.052;2024-02-26T11:53:53;7.60;;;2.80;;
40959;SDS011;27842;52.272;8.052;2024-02-26T11:56:22;6.88;;;3.15;;
40959;SDS011;27842;52.272;8.052;2024-02-26T11:58:52;7.90;;;3.30;;
40959;SDS011;27842;52.272;8.052;2024-02-26T12:04:13;9.47;;;3.23;;
40959;SDS011;27842;52.272;8.052;2024-02-26T12:06:42;7.47;;;3.17;;
40959;SDS011;27842;52.272;8.052;2024-02-26T12:09:09;7.00;;;3.23;;
40959;SDS011;27842;52.272;8.052;2024-02-26T12:11:38;7.23;;;2.80;;
40959;SDS011;27842;52.272;8.052;2024-02-26T12:14:08;7.53;;;3.53;;
40959;SDS011;27842;52.272;8.052;2024-02-26T12:16:35;7.47;;;3.10;;
40959;SDS011;27842;52.272;8.052;2024-02-26T12:19:05;7.07;;;3.10;;
40959;SDS011;27842;52.272;8.052;2024-02-26T12:21:36;6.10;;;2.90;;
40959;SDS011;27842;52.272;8.052;2024-02-26T12:24:12;6.53;;;2.97;;
40959;SDS011;27842;52.272;8.052;2024-02-26T12:26:39;6.70;;;2.63;;
40959;SDS011;27842;52.272;8.052;2024-02-26T12:29:05;6.77;;;2.87;;
40959;SDS011;27842;52.272;8.052;2024-02-26T12:31:32;9.00;;;2.90;;
40959;SDS011;27842;52.272;8.052;2024-02-26T12:33:59;8.27;;;3.20;;
40959;SDS011;27842;52.272;8.052;2024-02-26T12:36:25;7.10;;;3.10;;
40959;SDS011;27842;52.272;8.052;2024-02-26T12:38:51;7.70;;;2.87;;
40959;SDS011;27842;52.272;8.052;2024-02-26T12:41:17;5.77;;;2.83;;
40959;SDS011;27842;52.272;8.052;2024-02-26T12:43:43;5.73;;;2.70;;
40959;SDS011;27842;52.272;8.052;2024-02-26T12:46:09;7.03;;;2.97;;
40959;SDS011;27842;52.272;8.052;2024-02-26T12:48:36;7.23;;;3.40;;
40959;SDS011;27842;52.272;8.052;2024-02-26T12:51:01;9.20;;;3.20;;
40959;SDS011;27842;52.272;8.052;2024-02-26T12:53:27;8.30;;;3.10;;
40959;SDS011;27842;52.272;8.052;2024-02-26T12:55:56;6.43;;;3.00;;
40959;SDS011;27842;52.272;8.052;2024-02-26T12:58:22;7.07;;;3.10;;
40959;SDS011;27842;52.272;8.052;2024-02-26T13:00:52;9.33;;;3.40;;
40959;SDS011;27842;52.272;8.052;2024-02-26T13:03:19;8.07;;;2.90;;
40959;SDS011;27842;52.272;8.052;2024-02-26T13:05:47;8.80;;;3.50;;
40959;SDS011;27842;52.272;8.052;2024-02-26T13:08:19;8.23;;;3.23;;
40959;SDS011;27842;52.272;8.052;2024-02-26T13:10:46;8.50;;;3.10;;
40959;SDS011;27842;52.272;8.052;2024-02-26T13:13:14;8.03;;;3.10;;
40959;SDS011;27842;52.272;8.052;2024-02-26T13:15:42;7.17;;;3.10;;
40959;SDS011;27842;52.272;8.052;2024-02-26T13:18:09;10.20;;;3.40;;
40959;SDS011;27842;52.272;8.052;2024-02-26T13:23:35;5.05;;;2.90;;
40959;SDS011;27842;52.272;8.052;2024-02-26T13:26:01;8.33;;;3.00;;
40959;SDS011;27842;52.272;8.052;2024-02-26T13:29:01;5.80;;;2.40;;
40959;SDS011;27842;52.272;8.052;2024-02-26T13:31:28;6.93;;;2.80;;
40959;SDS011;27842;52.272;8.052;2024-02-26T13:33:54;7.67;;;2.90;;
40959;SDS011;27842;52.272;8.052;2024-02-26T13:36:21;6.90;;;3.03;;
40959;SDS011;27842;52.272;8.052;2024-02-26T13:38:54;7.63;;;3.20;;
40959;SDS011;27842;52.272;8.052;2024-02-26T13:41:20;6.63;;;2.77;;
40959;SDS011;27842;52.272;8.052;2024-02-26T13:43:46;7.80;;;3.17;;
40959;SDS011;27842;52.272;8.052;2024-02-26T13:46:12;8.87;;;3.03;;
40959;SDS011;27842;52.272;8.052;2024-02-26T13:48:40;9.27;;;2.93;;
40959;SDS011;27842;52.272;8.052;2024-02-26T13:51:06;11.43;;;3.30;;
40959;SDS011;27842;52.272;8.052;2024-02-26T13:53:32;6.70;;;3.03;;
40959;SDS011;27842;52.272;8.052;2024-02-26T13:55:57;8.53;;;3.00;;
40959;SDS011;27842;52.272;8.052;2024-02-26T13:58:26;7.37;;;3.13;;
40959;SDS011;27842;52.272;8.052;2024-02-26T14:00:52;7.80;;;3.20;;
40959;SDS011;27842;52.272;8.052;2024-02-26T14:03:19;9.47;;;3.30;;
40959;SDS011;27842;52.272;8.052;2024-02-26T14:05:45;8.10;;;2.97;;
40959;SDS011;27842;52.272;8.052;2024-02-26T14:08:11;8.90;;;3.20;;
40959;SDS011;27842;52.272;8.052;2024-02-26T14:10:36;9.03;;;3.30;;
40959;SDS011;27842;52.272;8.052;2024-02-26T14:13:02;10.40;;;3.20;;
40959;SDS011;27842;52.272;8.052;2024-02-26T14:15:28;8.77;;;3.40;;
40959;SDS011;27842;52.272;8.052;2024-02-26T14:17:54;7.67;;;3.13;;
40959;SDS011;27842;52.272;8.052;2024-02-26T14:20:24;11.37;;;3.80;;
40959;SDS011;27842;52.272;8.052;2024-02-26T14:22:50;8.13;;;3.50;;
40959;SDS011;27842;52.272;8.052;2024-02-26T14:25:20;9.85;;;3.83;;
40959;SDS011;27842;52.272;8.052;2024-02-26T14:27:46;11.33;;;4.50;;
40959;SDS011;27842;52.272;8.052;2024-02-26T14:30:13;10.70;;;3.93;;
40959;SDS011;27842;52.272;8.052;2024-02-26T14:32:41;12.65;;;4.22;;
40959;SDS011;27842;52.272;8.052;2024-02-26T14:35:07;11.30;;;4.13;;
40959;SDS011;27842;52.272;8.052;2024-02-26T14:37:34;9.80;;;3.70;;
40959;SDS011;27842;52.272;8.052;2024-02-26T14:40:00;11.23;;;3.93;;
40959;SDS011;27842;52.272;8.052;2024-02-26T14:42:27;8.47;;;3.50;;
40959;SDS011;27842;52.272;8.052;2024-02-26T14:44:53;15.87;;;3.53;;
40959;SDS011;27842;52.272;8.052;2024-02-26T14:47:19;9.53;;;3.53;;
40959;SDS011;27842;52.272;8.052;2024-02-26T14:49:45;8.30;;;3.43;;
40959;SDS011;27842;52.272;8.052;2024-02-26T14:52:13;9.27;;;3.47;;
40959;SDS011;27842;52.272;8.052;2024-02-26T14:54:39;9.47;;;3.67;;